الصفحة الرئيسية
METAR-TAF:

METAR-TAF

مطار :

كوراساو, جزر الأنتيل الهولندية

دائرة عرض: 12-12N, خط طول: 068-58W, ارتفاع: 9 متر

مراقبة الطقس الحالي

تاريخ ووقت الإصدار 15 دقيقة قبل الساعة 19:00UTC
ريح 5 عقدة من الشمال الشرقي, الاتجاه يتراوح بين الشمال/الشمال الشرقي و الشرق
درجة الحرارة 29°درجة مئوية
الرطوبة 70%
ضغط 1012 hPa
الرؤية 10 كم أو أكثر
غيوم قليلة على ارتفاع 2400 قدم

METAR: TNCC 211900Z 05005KT 030V090 9999 FEW024 29/23 Q1012 NOSIG

زمن: 15:15 (19:15 UTC)

توقعات

تاريخ ووقت الإصدار 14ساعات و 0 دقيقة قبل الساعة 05:15UTC
التوقعات صالحة من21 الساعة 06 UTC إلى 22 الساعة 06 UTC
ريح 7 عقدة من الشرق
الرؤية 10 كم أو أكثر
غيوم قليلة على ارتفاع 1800 قدم
نظرية الاحتمالات 40% :
مؤقت
من 21 الساعة 06 UTC إلى 21 الساعة 18 UTC
غيوم مفككة على ارتفاع 1500 قدم

TAF: TNCC 210515Z 2106/2206 10007KT 9999 FEW018 PROB40 TEMPO 2106/2118 BKN015

أرصاد الطقس والتوقعات من أكثر من 4000 مطار (تقارير الطقس للمطار METAR والتنبؤ بالطقس بالمطارTAF).

المحطات المتاحة هي النقط الصفراء والحمراء على الخريطة.

حرك المؤشر فوق النقطة لمعرفة اسم المحطة.

ثم انقر لمعرفة أرصاد وتوقعات الطقس.

لتغيير الخارطة: اضغط على الأزرار الخضراء مع رمز الصليب الأسود للتكبير. على الزر الأخضر مع شرطة للتصغير، أو على الأسهم الخضراء للخرائط المجاورة.


METAR-TAF: